createdAt,value
2022-09-04T00:00:39.217Z,0.00
2022-09-04T00:01:44.979Z,0.00
2022-09-04T00:02:39.217Z,0.00
2022-09-04T00:03:39.294Z,0.00
2022-09-04T00:04:39.302Z,0.00
2022-09-04T00:05:39.164Z,0.00
2022-09-04T00:06:39.170Z,0.00
2022-09-04T00:07:39.148Z,0.00
2022-09-04T00:08:39.148Z,0.00
2022-09-04T00:09:39.119Z,0.00
2022-09-04T00:10:39.112Z,0.00
2022-09-04T00:11:39.165Z,0.00
2022-09-04T00:12:39.094Z,0.00
2022-09-04T00:13:39.101Z,0.00
2022-09-04T00:14:39.067Z,0.00
2022-09-04T00:15:39.065Z,0.00
2022-09-04T00:16:39.075Z,0.00
2022-09-04T00:17:39.037Z,0.00
2022-09-04T00:18:39.072Z,0.00
2022-09-04T00:19:39.051Z,0.00
2022-09-04T00:20:39.739Z,0.00
2022-09-04T00:21:39.039Z,0.00
2022-09-04T00:22:38.983Z,0.00
2022-09-04T00:23:39.017Z,0.00
2022-09-04T00:24:38.964Z,0.00
2022-09-04T00:25:38.976Z,0.00
2022-09-04T00:26:38.954Z,0.00
2022-09-04T00:27:38.935Z,0.00
2022-09-04T00:28:38.920Z,0.00
2022-09-04T00:29:38.920Z,0.00
2022-09-04T00:30:38.952Z,0.00
2022-09-04T00:31:38.960Z,0.00
2022-09-04T00:32:38.903Z,0.00
2022-09-04T00:33:38.877Z,0.00
2022-09-04T00:34:38.864Z,0.00
2022-09-04T00:35:39.406Z,0.00
2022-09-04T00:36:38.846Z,0.00
2022-09-04T00:37:38.835Z,0.00
2022-09-04T00:38:38.817Z,0.00
2022-09-04T00:39:38.850Z,0.00
2022-09-04T00:40:38.806Z,0.00
2022-09-04T00:41:38.812Z,0.00
2022-09-04T00:42:38.798Z,0.00
2022-09-04T00:43:38.772Z,0.00
2022-09-04T00:44:38.762Z,0.00
2022-09-04T00:45:38.785Z,0.00
2022-09-04T00:46:38.766Z,0.00
2022-09-04T00:47:38.723Z,0.00
2022-09-04T00:48:38.714Z,0.00
2022-09-04T00:49:38.704Z,0.00
2022-09-04T00:50:38.693Z,0.00
2022-09-04T00:51:38.723Z,0.00
2022-09-04T00:52:38.672Z,0.00
2022-09-04T00:53:38.662Z,0.00
2022-09-04T00:54:38.653Z,0.00
2022-09-04T00:55:38.647Z,0.00
2022-09-04T00:56:38.634Z,0.00
2022-09-04T00:57:38.642Z,0.00
2022-09-04T00:58:38.627Z,0.00
2022-09-04T00:59:38.620Z,0.00
2022-09-04T01:00:38.592Z,0.00
2022-09-04T01:01:38.664Z,0.00
2022-09-04T01:02:38.569Z,0.00
2022-09-04T01:03:38.588Z,0.00
2022-09-04T01:04:38.550Z,0.00
2022-09-04T01:06:34.207Z,0.00
2022-09-04T01:07:35.206Z,0.00
2022-09-04T01:08:35.203Z,0.00
2022-09-04T01:09:35.211Z,0.00
2022-09-04T01:10:35.167Z,0.00
2022-09-04T01:11:35.158Z,0.00
2022-09-04T01:12:35.143Z,0.00
2022-09-04T01:13:35.264Z,0.00
2022-09-04T01:14:35.168Z,0.00
2022-09-04T01:15:35.117Z,0.00
2022-09-04T01:16:35.152Z,0.00
2022-09-04T01:17:35.097Z,0.00
2022-09-04T01:18:35.081Z,0.00
2022-09-04T01:19:35.077Z,0.00
2022-09-04T01:20:35.088Z,0.00
2022-09-04T01:21:35.053Z,0.00
2022-09-04T01:22:35.043Z,0.00
2022-09-04T01:23:35.037Z,0.00
2022-09-04T01:24:35.026Z,0.00
2022-09-04T01:25:35.013Z,0.00
2022-09-04T01:26:35.032Z,0.00
2022-09-04T01:27:34.993Z,0.00
2022-09-04T01:28:34.976Z,0.00
2022-09-04T01:29:34.968Z,0.00
2022-09-04T01:30:34.957Z,0.00
2022-09-04T01:31:35.015Z,0.00
2022-09-04T01:32:34.957Z,0.00
2022-09-04T01:33:34.928Z,0.00
2022-09-04T01:34:34.924Z,0.00
2022-09-04T01:35:34.912Z,0.00
2022-09-04T01:36:34.901Z,0.00
2022-09-04T01:37:34.886Z,0.00
2022-09-04T01:38:34.904Z,0.00
2022-09-04T01:39:34.913Z,0.00
2022-09-04T01:40:36.035Z,0.00
2022-09-04T01:41:38.355Z,0.00
2022-09-04T01:42:34.834Z,0.00
2022-09-04T01:43:34.827Z,0.00
2022-09-04T01:44:34.814Z,0.00
2022-09-04T01:45:34.885Z,0.00
2022-09-04T01:46:34.796Z,0.00
2022-09-04T01:47:34.784Z,0.00
2022-09-04T01:48:34.783Z,0.00
2022-09-04T01:49:34.760Z,0.00
2022-09-04T01:50:34.772Z,0.00
2022-09-04T01:51:34.761Z,0.00
2022-09-04T01:52:34.739Z,0.00
2022-09-04T01:53:34.748Z,0.00
2022-09-04T01:54:34.707Z,0.00
2022-09-04T01:55:34.697Z,0.00
2022-09-04T01:56:34.708Z,0.00
2022-09-04T01:57:34.680Z,0.00
2022-09-04T01:58:34.667Z,0.00
2022-09-04T01:59:34.660Z,0.00
2022-09-04T02:00:34.645Z,0.00
2022-09-04T02:01:34.741Z,0.00
2022-09-04T02:02:34.721Z,0.00
2022-09-04T02:03:34.615Z,0.00
2022-09-04T02:04:34.606Z,0.00
2022-09-04T02:05:34.595Z,0.00
2022-09-04T02:06:34.606Z,0.00
2022-09-04T02:07:34.572Z,0.00
2022-09-04T02:08:34.560Z,0.00
2022-09-04T02:09:34.555Z,0.00
2022-09-04T02:10:34.565Z,0.00
2022-09-04T02:11:34.532Z,0.00
2022-09-04T02:12:34.543Z,0.00
2022-09-04T02:13:34.512Z,0.00
2022-09-04T02:14:34.498Z,0.00
2022-09-04T02:15:34.495Z,0.00
2022-09-04T02:16:34.559Z,0.00
2022-09-04T02:17:34.477Z,0.00
2022-09-04T02:18:34.455Z,0.00
2022-09-04T02:19:34.448Z,0.00
2022-09-04T02:20:34.442Z,0.00
2022-09-04T02:21:34.432Z,0.00
2022-09-04T02:22:34.438Z,0.00
2022-09-04T02:23:34.406Z,0.00
2022-09-04T02:24:34.400Z,0.00
2022-09-04T02:25:34.387Z,0.00
2022-09-04T02:26:34.374Z,0.00
2022-09-04T02:27:34.388Z,0.00
2022-09-04T02:28:34.359Z,0.00
2022-09-04T02:29:34.348Z,0.00
2022-09-04T02:30:34.332Z,0.00
2022-09-04T02:31:34.394Z,0.00
2022-09-04T02:32:34.335Z,0.00
2022-09-04T02:33:34.306Z,0.00
2022-09-04T02:34:34.297Z,0.00
2022-09-04T02:35:34.308Z,0.00
2022-09-04T02:36:34.277Z,0.00
2022-09-04T02:37:34.263Z,0.00
2022-09-04T02:38:34.249Z,0.00
2022-09-04T02:39:34.310Z,0.00
2022-09-04T02:40:34.230Z,0.00
2022-09-04T02:41:34.239Z,0.00
2022-09-04T02:42:34.244Z,0.00
2022-09-04T02:43:34.198Z,0.00
2022-09-04T02:44:34.188Z,0.00
2022-09-04T02:45:34.188Z,0.00
2022-09-04T02:46:34.199Z,0.00
2022-09-04T02:47:34.188Z,0.00
2022-09-04T02:48:34.147Z,0.00
2022-09-04T02:49:34.144Z,0.00
2022-09-04T02:50:34.157Z,0.00
2022-09-04T02:51:34.123Z,0.00
2022-09-04T02:52:34.106Z,0.00
2022-09-04T02:53:34.120Z,0.00
2022-09-04T02:54:34.087Z,0.00
2022-09-04T02:55:34.083Z,0.00
2022-09-04T02:56:34.062Z,0.00
2022-09-04T02:57:34.065Z,0.00
2022-09-04T02:58:34.046Z,0.00
2022-09-04T02:59:34.059Z,0.00
2022-09-04T03:00:34.099Z,0.00
2022-09-04T03:01:34.045Z,0.00
2022-09-04T03:02:34.030Z,0.00
2022-09-04T03:03:33.992Z,0.00
2022-09-04T03:04:34.008Z,0.00
2022-09-04T03:05:33.981Z,0.00
2022-09-04T03:06:33.962Z,0.00
2022-09-04T03:07:33.955Z,0.00
2022-09-04T03:08:36.360Z,0.00
2022-09-04T03:09:33.935Z,0.00
2022-09-04T03:10:33.945Z,0.00
2022-09-04T03:11:33.911Z,0.00
2022-09-04T03:12:33.896Z,0.00
2022-09-04T03:13:33.893Z,0.00
2022-09-04T03:14:33.898Z,0.00
2022-09-04T03:15:33.870Z,0.00
2022-09-04T03:16:33.885Z,0.00
2022-09-04T03:17:33.857Z,0.00
2022-09-04T03:18:33.838Z,0.00
2022-09-04T03:19:33.847Z,0.00
2022-09-04T03:20:33.816Z,0.00
2022-09-04T03:21:33.809Z,0.00
2022-09-04T03:22:33.794Z,0.00
2022-09-04T03:23:33.788Z,0.00
2022-09-04T03:24:33.781Z,0.00
2022-09-04T03:25:33.787Z,0.00
2022-09-04T03:26:33.777Z,0.00
2022-09-04T03:27:33.751Z,0.00
2022-09-04T03:28:33.732Z,0.00
2022-09-04T03:29:33.727Z,0.00
2022-09-04T03:30:33.714Z,0.00
2022-09-04T03:31:33.926Z,0.00
2022-09-04T03:32:33.692Z,0.00
2022-09-04T03:33:33.685Z,0.00
2022-09-04T03:34:33.704Z,0.00
2022-09-04T03:35:33.667Z,0.00
2022-09-04T03:36:33.646Z,0.00
2022-09-04T03:37:33.667Z,0.00
2022-09-04T03:38:33.656Z,0.00
2022-09-04T03:39:33.670Z,0.00
2022-09-04T03:40:33.610Z,0.00
2022-09-04T03:41:33.607Z,0.00
2022-09-04T03:42:33.593Z,0.00
2022-09-04T03:43:33.621Z,0.00
2022-09-04T03:44:33.585Z,0.00
2022-09-04T03:45:33.585Z,0.00
2022-09-04T03:46:33.603Z,0.00
2022-09-04T03:47:33.539Z,0.00
2022-09-04T03:48:33.530Z,0.00
2022-09-04T03:49:33.519Z,0.00
2022-09-04T03:50:33.503Z,0.00
2022-09-04T03:51:33.520Z,0.00
2022-09-04T03:52:33.484Z,0.00
2022-09-04T03:53:33.478Z,0.00
2022-09-04T03:54:33.467Z,0.00
2022-09-04T03:55:33.460Z,0.00
2022-09-04T03:56:33.462Z,0.00
2022-09-04T03:57:33.435Z,0.00
2022-09-04T03:58:33.421Z,0.00
2022-09-04T03:59:33.414Z,0.00
2022-09-04T04:00:33.451Z,0.00
2022-09-04T04:01:33.438Z,0.00
2022-09-04T04:02:33.419Z,0.00
2022-09-04T04:03:33.373Z,0.00
2022-09-04T04:04:33.372Z,0.00
2022-09-04T04:05:33.353Z,0.00
2022-09-04T04:06:33.336Z,0.00
2022-09-04T04:07:33.362Z,0.00
2022-09-04T04:08:33.319Z,0.00
2022-09-04T04:09:33.317Z,0.00
2022-09-04T04:10:33.302Z,0.00
2022-09-04T04:11:33.295Z,0.00
2022-09-04T04:12:33.274Z,0.00
2022-09-04T04:13:33.244Z,1.00
2022-09-04T04:14:33.211Z,1.00
2022-09-04T04:15:33.224Z,1.00
2022-09-04T04:16:33.312Z,1.00
2022-09-04T04:17:33.229Z,0.00
2022-09-04T04:18:33.217Z,0.00
2022-09-04T04:19:33.212Z,2.00
2022-09-04T04:20:33.142Z,1.00
2022-09-04T04:21:33.133Z,1.00
2022-09-04T04:22:33.122Z,2.00
2022-09-04T04:23:33.111Z,1.00
2022-09-04T04:24:33.098Z,5.00
2022-09-04T04:25:33.131Z,4.00
2022-09-04T04:26:33.075Z,4.00
2022-09-04T04:27:33.072Z,5.00
2022-09-04T04:28:33.056Z,5.00
2022-09-04T04:29:33.045Z,7.00
2022-09-04T04:30:33.038Z,10.00
2022-09-04T04:31:33.082Z,7.00
2022-09-04T04:32:33.020Z,7.00
2022-09-04T04:33:33.007Z,9.00
2022-09-04T04:34:33.009Z,16.00
2022-09-04T04:35:32.982Z,15.00
2022-09-04T04:36:32.977Z,17.00
2022-09-04T04:37:32.980Z,22.00
2022-09-04T04:38:32.960Z,22.00
2022-09-04T04:39:32.979Z,25.00
2022-09-04T04:40:32.977Z,29.00
2022-09-04T04:41:32.919Z,31.00
2022-09-04T04:42:32.916Z,31.00
2022-09-04T04:43:32.922Z,34.00
2022-09-04T04:44:32.892Z,41.00
2022-09-04T04:45:32.879Z,42.00
2022-09-04T04:46:32.923Z,47.00
2022-09-04T04:47:32.863Z,51.00
2022-09-04T04:48:32.869Z,54.00
2022-09-04T04:49:32.840Z,59.00
2022-09-04T04:50:32.831Z,66.00
2022-09-04T04:51:32.819Z,68.00
2022-09-04T04:52:32.818Z,74.00
2022-09-04T04:53:32.798Z,80.00
2022-09-04T04:54:32.810Z,83.00
2022-09-04T04:55:32.781Z,89.00
2022-09-04T04:56:32.769Z,93.00
2022-09-04T04:57:32.757Z,97.00
2022-09-04T04:58:32.748Z,102.00
2022-09-04T04:59:32.758Z,109.00
2022-09-04T05:00:32.746Z,113.00
2022-09-04T05:01:32.813Z,122.00
2022-09-04T05:02:32.815Z,124.00
2022-09-04T05:03:32.694Z,134.00
2022-09-04T05:04:32.689Z,135.00
2022-09-04T05:05:32.677Z,141.00
2022-09-04T05:06:32.683Z,147.00
2022-09-04T05:07:32.658Z,149.00
2022-09-04T05:08:32.644Z,157.00
2022-09-04T05:09:32.632Z,157.00
2022-09-04T05:10:32.621Z,161.00
2022-09-04T05:11:32.626Z,172.00
2022-09-04T05:12:32.603Z,185.00
2022-09-04T05:13:32.589Z,191.00
2022-09-04T05:14:32.583Z,193.00
2022-09-04T05:15:32.568Z,197.00
2022-09-04T05:16:32.612Z,210.00
2022-09-04T05:17:32.549Z,220.00
2022-09-04T05:18:32.539Z,238.00
2022-09-04T05:19:32.529Z,251.00
2022-09-04T05:20:32.523Z,258.00
2022-09-04T05:21:32.507Z,261.00
2022-09-04T05:22:34.392Z,275.00
2022-09-04T05:23:32.485Z,293.00
2022-09-04T05:24:32.484Z,305.00
2022-09-04T05:25:32.463Z,313.00
2022-09-04T05:26:32.459Z,316.00
2022-09-04T05:27:32.446Z,324.00
2022-09-04T05:28:32.474Z,340.00
2022-09-04T05:29:32.833Z,347.00
2022-09-04T05:30:32.415Z,357.00
2022-09-04T05:31:32.454Z,376.00
2022-09-04T05:32:32.396Z,384.00
2022-09-04T05:33:32.407Z,390.00
2022-09-04T05:34:32.377Z,403.00
2022-09-04T05:35:35.569Z,413.00
2022-09-04T05:36:32.356Z,424.00
2022-09-04T05:37:32.376Z,439.00
2022-09-04T05:38:32.352Z,442.00
2022-09-04T05:39:32.386Z,512.00
2022-09-04T05:40:32.316Z,418.00
2022-09-04T05:41:32.303Z,421.00
2022-09-04T05:42:32.290Z,487.00
2022-09-04T05:43:32.275Z,491.00
2022-09-04T05:44:32.303Z,503.00
2022-09-04T05:45:32.256Z,511.00
2022-09-04T05:46:32.442Z,518.00
2022-09-04T05:47:32.245Z,525.00
2022-09-04T05:48:32.240Z,538.00
2022-09-04T05:49:32.218Z,541.00
2022-09-04T05:50:32.237Z,564.00
2022-09-04T05:51:32.197Z,568.00
2022-09-04T05:52:32.187Z,557.00
2022-09-04T05:53:32.175Z,553.00
2022-09-04T05:54:32.168Z,564.00
2022-09-04T05:55:32.267Z,590.00
2022-09-04T05:56:32.151Z,588.00
2022-09-04T05:57:32.140Z,598.00
2022-09-04T05:58:32.127Z,604.00
2022-09-04T05:59:32.117Z,634.00
2022-09-04T06:00:32.106Z,646.00
2022-09-04T06:01:32.157Z,651.00
2022-09-04T06:02:32.156Z,663.00
2022-09-04T06:03:32.086Z,662.00
2022-09-04T06:04:32.066Z,659.00
2022-09-04T06:05:32.051Z,675.00
2022-09-04T06:06:32.051Z,693.00
2022-09-04T06:07:32.050Z,709.00
2022-09-04T06:08:32.185Z,726.00
2022-09-04T06:09:32.013Z,700.00
2022-09-04T06:10:32.003Z,731.00
2022-09-04T06:11:31.989Z,741.00
2022-09-04T06:12:32.013Z,750.00
2022-09-04T06:13:31.979Z,757.00
2022-09-04T06:14:31.960Z,817.00
2022-09-04T06:15:31.944Z,783.00
2022-09-04T06:16:31.940Z,732.00
2022-09-04T06:17:31.923Z,797.00
2022-09-04T06:18:31.940Z,732.00
2022-09-04T06:19:31.947Z,828.00
2022-09-04T06:20:31.895Z,677.00
2022-09-04T06:21:31.884Z,744.00
2022-09-04T06:22:31.880Z,754.00
2022-09-04T06:23:31.886Z,715.00
2022-09-04T06:24:31.860Z,733.00
2022-09-04T06:25:31.841Z,748.00
2022-09-04T06:26:31.836Z,766.00
2022-09-04T06:27:34.496Z,786.00
2022-09-04T06:28:31.819Z,812.00
2022-09-04T06:29:31.843Z,814.00
2022-09-04T06:30:31.797Z,842.00
2022-09-04T06:31:31.868Z,819.00
2022-09-04T06:32:31.776Z,837.00
2022-09-04T06:33:31.764Z,862.00
2022-09-04T06:34:31.773Z,881.00
2022-09-04T06:35:31.761Z,898.00
2022-09-04T06:36:31.740Z,906.00
2022-09-04T06:37:31.716Z,888.00
2022-09-04T06:38:31.714Z,903.00
2022-09-04T06:39:31.746Z,930.00
2022-09-04T06:40:31.704Z,942.00
2022-09-04T06:41:31.694Z,947.00
2022-09-04T06:42:31.673Z,953.00
2022-09-04T06:43:31.657Z,964.00
2022-09-04T06:44:31.651Z,971.00
2022-09-04T06:45:31.660Z,983.00
2022-09-04T06:46:31.736Z,998.00
2022-09-04T06:47:31.616Z,1002.00
2022-09-04T06:48:31.612Z,1009.00
2022-09-04T06:49:31.596Z,1027.00
2022-09-04T06:50:31.589Z,1030.00
2022-09-04T06:51:32.643Z,1016.00
2022-09-04T06:52:31.589Z,1014.00
2022-09-04T06:53:31.561Z,1023.00
2022-09-04T06:54:32.348Z,1032.00
2022-09-04T06:55:31.541Z,1046.00
2022-09-04T06:56:31.548Z,1044.00
2022-09-04T06:57:31.517Z,1043.00
2022-09-04T06:58:31.506Z,1045.00
2022-09-04T06:59:31.511Z,1053.00
2022-09-04T07:00:31.488Z,1067.00
2022-09-04T07:01:31.607Z,1082.00
2022-09-04T07:02:31.603Z,1083.00
2022-09-04T07:03:31.449Z,1081.00
2022-09-04T07:04:31.446Z,1075.00
2022-09-04T07:05:31.454Z,1076.00
2022-09-04T07:06:31.422Z,1087.00
2022-09-04T07:07:31.412Z,1095.00
2022-09-04T07:08:31.397Z,1113.00
2022-09-04T07:09:31.419Z,1136.00
2022-09-04T07:10:31.395Z,1160.00
2022-09-04T07:11:31.367Z,1413.00
2022-09-04T07:12:31.369Z,1184.00
2022-09-04T07:13:31.348Z,703.00
2022-09-04T07:14:31.347Z,1083.00
2022-09-04T07:15:31.408Z,801.00
2022-09-04T07:16:31.313Z,970.00
2022-09-04T07:17:31.304Z,813.00
2022-09-04T07:18:31.324Z,834.00
2022-09-04T07:19:31.283Z,766.00
2022-09-04T07:20:31.274Z,745.00
2022-09-04T07:21:31.287Z,705.00
2022-09-04T07:22:31.251Z,811.00
2022-09-04T07:23:31.237Z,780.00
2022-09-04T07:24:31.246Z,765.00
2022-09-04T07:25:31.215Z,921.00
2022-09-04T07:26:31.259Z,1037.00
2022-09-04T07:27:31.208Z,848.00
2022-09-04T07:28:31.188Z,848.00
2022-09-04T07:29:31.175Z,864.00
2022-09-04T07:30:31.178Z,629.00
2022-09-04T07:31:31.194Z,886.00
2022-09-04T07:32:31.167Z,1445.00
2022-09-04T07:33:31.136Z,1544.00
2022-09-04T07:34:31.132Z,1299.00
2022-09-04T07:35:31.122Z,954.00
2022-09-04T07:36:31.943Z,693.00
2022-09-04T07:37:31.117Z,932.00
2022-09-04T07:38:31.090Z,561.00
2022-09-04T07:39:31.123Z,947.00
2022-09-04T07:40:31.072Z,1375.00
2022-09-04T07:41:31.056Z,1014.00
2022-09-04T07:42:31.189Z,813.00
2022-09-04T07:43:31.056Z,843.00
2022-09-04T07:44:31.028Z,761.00
2022-09-04T07:45:31.013Z,246.00
2022-09-04T07:46:31.057Z,1093.00
2022-09-04T07:47:30.990Z,1302.00
2022-09-04T07:48:31.012Z,1375.00
2022-09-04T07:49:30.969Z,1032.00
2022-09-04T07:50:30.978Z,1359.00
2022-09-04T07:51:30.947Z,1127.00
2022-09-04T07:52:30.967Z,1091.00
2022-09-04T07:53:30.928Z,1088.00
2022-09-04T07:54:30.924Z,1276.00
2022-09-04T07:55:30.929Z,1605.00
2022-09-04T07:56:30.899Z,1174.00
2022-09-04T07:57:30.893Z,731.00
2022-09-04T07:58:30.881Z,1288.00
2022-09-04T07:59:30.871Z,1050.00
2022-09-04T08:00:30.884Z,1028.00
2022-09-04T08:01:30.872Z,341.00
2022-09-04T08:02:30.840Z,1832.00
2022-09-04T08:03:30.842Z,1096.00
2022-09-04T08:04:30.862Z,1183.00
2022-09-04T08:05:30.804Z,1506.00
2022-09-04T08:06:30.810Z,1550.00
2022-09-04T08:07:30.785Z,1297.00
2022-09-04T08:08:30.800Z,1458.00
2022-09-04T08:09:30.761Z,1523.00
2022-09-04T08:10:30.765Z,1679.00
2022-09-04T08:11:30.744Z,999.00
2022-09-04T08:12:30.740Z,1666.00
2022-09-04T08:13:30.722Z,1162.00
2022-09-04T08:14:30.733Z,1482.00
2022-09-04T08:15:30.728Z,1510.00
2022-09-04T08:16:30.692Z,799.00
2022-09-04T08:17:30.677Z,1150.00
2022-09-04T08:18:30.690Z,1198.00
2022-09-04T08:19:30.657Z,1208.00
2022-09-04T08:20:30.652Z,1283.00
2022-09-04T08:21:30.635Z,1337.00
2022-09-04T08:22:30.623Z,1382.00
2022-09-04T08:23:30.609Z,1371.00
2022-09-04T08:24:30.629Z,1485.00
2022-09-04T08:25:30.592Z,1035.00
2022-09-04T08:26:30.586Z,1320.00
2022-09-04T08:27:30.576Z,1373.00
2022-09-04T08:28:30.574Z,1381.00
2022-09-04T08:29:30.575Z,1334.00
2022-09-04T08:30:30.547Z,1284.00
2022-09-04T08:31:30.584Z,1428.00
2022-09-04T08:32:36.767Z,1221.00
2022-09-04T08:33:30.528Z,1299.00
2022-09-04T08:35:25.482Z,1246.00
2022-09-04T08:36:26.454Z,1265.00
2022-09-04T08:37:33.975Z,1222.00
2022-09-04T08:38:26.561Z,1244.00
2022-09-04T08:39:26.449Z,1278.00
2022-09-04T08:40:26.421Z,1272.00
2022-09-04T08:41:26.392Z,1198.00
2022-09-04T08:42:26.393Z,1197.00
2022-09-04T08:43:26.369Z,1222.00
2022-09-04T08:44:26.359Z,1213.00
2022-09-04T08:45:26.385Z,1133.00
2022-09-04T08:46:28.946Z,1169.00
2022-09-04T08:47:26.363Z,1166.00
2022-09-04T08:48:26.478Z,1129.00
2022-09-04T08:49:26.309Z,1152.00
2022-09-04T08:50:26.290Z,1158.00
2022-09-04T08:51:26.316Z,1192.00
2022-09-04T08:52:26.273Z,1177.00
2022-09-04T08:53:26.278Z,1208.00
2022-09-04T08:54:26.246Z,1215.00
2022-09-04T08:55:26.247Z,1265.00
2022-09-04T08:56:26.254Z,1288.00
2022-09-04T08:57:26.230Z,1261.00
2022-09-04T08:58:26.247Z,1201.00
2022-09-04T08:59:26.201Z,1133.00
2022-09-04T09:00:26.200Z,1122.00
2022-09-04T09:01:26.224Z,1144.00
2022-09-04T09:02:26.273Z,1183.00
2022-09-04T09:03:26.161Z,1222.00
2022-09-04T09:04:26.148Z,1192.00
2022-09-04T09:05:26.148Z,1156.00
2022-09-04T09:06:26.131Z,1168.00
2022-09-04T09:07:26.128Z,1178.00
2022-09-04T09:08:30.965Z,1147.00
2022-09-04T09:09:26.108Z,1135.00
2022-09-04T09:10:26.098Z,1153.00
2022-09-04T09:11:26.080Z,1214.00
2022-09-04T09:12:26.103Z,1264.00
2022-09-04T09:13:26.066Z,1217.00
2022-09-04T09:14:26.064Z,1259.00
2022-09-04T09:15:26.043Z,1219.00
2022-09-04T09:16:26.109Z,1272.00
2022-09-04T09:17:29.989Z,1297.00
2022-09-04T09:18:26.175Z,1296.00
2022-09-04T09:19:26.010Z,1379.00
2022-09-04T09:20:25.983Z,1364.00
2022-09-04T09:21:25.998Z,1297.00
2022-09-04T09:22:25.959Z,862.00
2022-09-04T09:23:25.965Z,738.00
2022-09-04T09:24:25.934Z,1338.00
2022-09-04T09:25:25.930Z,1058.00
2022-09-04T09:26:25.916Z,565.00
2022-09-04T09:27:25.942Z,1187.00
2022-09-04T09:28:25.897Z,1212.00
2022-09-04T09:29:25.889Z,1243.00
2022-09-04T09:30:25.924Z,1317.00
2022-09-04T09:31:25.859Z,1430.00
2022-09-04T09:32:25.877Z,1388.00
2022-09-04T09:33:26.061Z,1252.00
2022-09-04T09:34:25.828Z,1386.00
2022-09-04T09:35:25.818Z,1674.00
2022-09-04T09:36:25.808Z,1690.00
2022-09-04T09:37:25.812Z,1501.00
2022-09-04T09:38:25.809Z,1687.00
2022-09-04T09:39:25.832Z,1695.00
2022-09-04T09:40:25.788Z,1607.00
2022-09-04T09:41:25.774Z,1710.00
2022-09-04T09:42:25.748Z,1677.00
2022-09-04T09:43:25.927Z,1840.00
2022-09-04T09:44:25.726Z,1838.00
2022-09-04T09:45:25.736Z,1924.00
2022-09-04T09:46:25.799Z,1943.00
2022-09-04T09:47:25.691Z,1863.00
2022-09-04T09:48:25.689Z,1863.00
2022-09-04T09:49:25.700Z,1393.00
2022-09-04T09:50:25.667Z,1565.00
2022-09-04T09:51:25.652Z,1911.00
2022-09-04T09:52:25.641Z,1966.00
2022-09-04T09:53:25.829Z,1989.00
2022-09-04T09:54:25.624Z,1744.00
2022-09-04T09:55:25.629Z,2062.00
2022-09-04T09:56:25.592Z,1946.00
2022-09-04T09:57:33.405Z,2426.00
2022-09-04T09:58:25.619Z,2575.00
2022-09-04T09:59:25.580Z,1513.00
2022-09-04T10:00:25.575Z,1959.00
2022-09-04T10:01:25.676Z,2185.00
2022-09-04T10:02:25.610Z,2423.00
2022-09-04T10:03:25.831Z,523.00
2022-09-04T10:04:25.504Z,2097.00
2022-09-04T10:05:25.501Z,2519.00
2022-09-04T10:06:25.514Z,2650.00
2022-09-04T10:07:25.485Z,1663.00
2022-09-04T10:08:33.814Z,2163.00
2022-09-04T10:09:25.475Z,2525.00
2022-09-04T10:10:25.448Z,1423.00
2022-09-04T10:11:25.478Z,897.00
2022-09-04T10:12:25.443Z,1834.00
2022-09-04T10:13:25.660Z,2511.00
2022-09-04T10:14:25.491Z,1505.00
2022-09-04T10:15:25.396Z,787.00
2022-09-04T10:16:25.439Z,3017.00
2022-09-04T10:17:25.395Z,2485.00
2022-09-04T10:18:25.367Z,1811.00
2022-09-04T10:19:25.352Z,1622.00
2022-09-04T10:20:25.376Z,1808.00
2022-09-04T10:21:25.335Z,1468.00
2022-09-04T10:22:25.428Z,1284.00
2022-09-04T10:23:25.484Z,1291.00
2022-09-04T10:24:25.298Z,1522.00
2022-09-04T10:25:25.287Z,1292.00
2022-09-04T10:26:25.332Z,1197.00
2022-09-04T10:27:25.294Z,1299.00
2022-09-04T10:28:25.365Z,1339.00
2022-09-04T10:29:25.290Z,1349.00
2022-09-04T10:30:25.291Z,1356.00
2022-09-04T10:31:25.231Z,1622.00
2022-09-04T10:32:25.224Z,1252.00
2022-09-04T10:33:25.445Z,2065.00
2022-09-04T10:34:25.239Z,2052.00
2022-09-04T10:35:25.444Z,1454.00
2022-09-04T10:36:25.181Z,1292.00
2022-09-04T10:37:25.159Z,2396.00
2022-09-04T10:38:25.174Z,1860.00
2022-09-04T10:39:25.240Z,1643.00
2022-09-04T10:40:25.153Z,913.00
2022-09-04T10:41:25.138Z,1841.00
2022-09-04T10:42:25.179Z,1680.00
2022-09-04T10:43:25.143Z,1921.00
2022-09-04T10:44:25.098Z,2754.00
2022-09-04T10:45:25.076Z,2061.00
2022-09-04T10:46:25.167Z,1111.00
2022-09-04T10:47:25.063Z,1969.00
2022-09-04T10:48:28.468Z,2437.00
2022-09-04T10:49:25.045Z,2147.00
2022-09-04T10:50:25.028Z,3130.00
2022-09-04T10:51:25.045Z,2369.00
2022-09-04T10:52:25.018Z,2599.00
2022-09-04T10:53:25.102Z,2363.00
2022-09-04T10:54:24.990Z,1983.00
2022-09-04T10:55:24.979Z,1627.00
2022-09-04T10:56:25.044Z,1633.00
2022-09-04T10:57:25.001Z,1537.00
2022-09-04T10:58:24.958Z,1559.00
2022-09-04T10:59:24.931Z,1717.00
2022-09-04T11:00:24.940Z,1641.00
2022-09-04T11:01:24.960Z,1624.00
2022-09-04T11:02:24.950Z,636.00
2022-09-04T11:03:24.999Z,2761.00
2022-09-04T11:04:24.895Z,1578.00
2022-09-04T11:05:24.919Z,1717.00
2022-09-04T11:06:24.892Z,610.00
2022-09-04T11:07:28.564Z,2787.00
2022-09-04T11:08:24.858Z,3438.00
2022-09-04T11:09:24.861Z,3368.00
2022-09-04T11:10:24.835Z,1965.00
2022-09-04T11:11:24.822Z,1585.00
2022-09-04T11:12:24.862Z,1543.00
2022-09-04T11:13:24.935Z,2048.00
2022-09-04T11:14:24.894Z,1896.00
2022-09-04T11:15:24.801Z,1761.00
2022-09-04T11:16:24.853Z,2462.00
2022-09-04T11:17:24.833Z,1303.00
2022-09-04T11:18:24.759Z,941.00
2022-09-04T11:19:24.840Z,3951.00
2022-09-04T11:20:25.756Z,2027.00
2022-09-04T11:21:24.714Z,1813.00
2022-09-04T11:22:24.723Z,720.00
2022-09-04T11:23:24.855Z,3898.00
2022-09-04T11:24:24.692Z,4118.00
2022-09-04T11:25:24.678Z,3456.00
2022-09-04T11:26:24.701Z,4430.00
2022-09-04T11:27:24.673Z,2772.00
2022-09-04T11:28:24.676Z,3809.00
2022-09-04T11:29:24.624Z,4044.00
2022-09-04T11:30:24.641Z,4410.00
2022-09-04T11:31:24.721Z,4391.00
2022-09-04T11:32:24.602Z,4303.00
2022-09-04T11:33:24.706Z,1446.00
2022-09-04T11:34:24.600Z,955.00
2022-09-04T11:35:24.572Z,5019.00
2022-09-04T11:36:24.560Z,5106.00
2022-09-04T11:37:24.639Z,4947.00
2022-09-04T11:38:24.541Z,5715.00
2022-09-04T11:39:24.593Z,3026.00
2022-09-04T11:40:24.518Z,2185.00
2022-09-04T11:41:24.505Z,1863.00
2022-09-04T11:42:24.532Z,784.00
2022-09-04T11:43:24.666Z,4258.00
2022-09-04T11:44:24.488Z,5808.00
2022-09-04T11:45:24.591Z,4873.00
2022-09-04T11:46:24.482Z,4799.00
2022-09-04T11:47:24.504Z,5542.00
2022-09-04T11:48:24.483Z,4975.00
2022-09-04T11:49:24.422Z,4350.00
2022-09-04T11:50:24.422Z,5265.00
2022-09-04T11:51:24.396Z,5979.00
2022-09-04T11:52:24.381Z,1951.00
2022-09-04T11:53:24.528Z,5208.00
2022-09-04T11:54:24.369Z,2003.00
2022-09-04T11:55:24.361Z,893.00
2022-09-04T11:56:24.372Z,4576.00
2022-09-04T11:57:24.334Z,5168.00
2022-09-04T11:58:24.342Z,5756.00
2022-09-04T11:59:24.326Z,5435.00
2022-09-04T12:00:24.304Z,5397.00
2022-09-04T12:01:24.311Z,6151.00
2022-09-04T12:02:24.366Z,5972.00
2022-09-04T12:03:24.377Z,5952.00
2022-09-04T12:04:24.364Z,5882.00
2022-09-04T12:05:24.269Z,5690.00
2022-09-04T12:06:24.248Z,5639.00
2022-09-04T12:07:24.229Z,5905.00
2022-09-04T12:08:24.225Z,5938.00
2022-09-04T12:09:24.233Z,6441.00
2022-09-04T12:10:24.232Z,7535.00
2022-09-04T12:11:24.193Z,4664.00
2022-09-04T12:12:24.183Z,5470.00
2022-09-04T12:13:24.181Z,3347.00
2022-09-04T12:14:24.159Z,2179.00
2022-09-04T12:15:24.195Z,1151.00
2022-09-04T12:16:24.176Z,2484.00
2022-09-04T12:17:24.150Z,5831.00
2022-09-04T12:18:24.120Z,1364.00
2022-09-04T12:19:24.107Z,5978.00
2022-09-04T12:20:24.359Z,1076.00
2022-09-04T12:21:24.109Z,7199.00
2022-09-04T12:22:24.083Z,6325.00
2022-09-04T12:23:24.227Z,5164.00
2022-09-04T12:24:24.055Z,5965.00
2022-09-04T12:25:24.080Z,2327.00
2022-09-04T12:26:24.066Z,2285.00
2022-09-04T12:27:24.026Z,2175.00
2022-09-04T12:28:24.040Z,2056.00
2022-09-04T12:29:24.013Z,1406.00
2022-09-04T12:30:23.999Z,1093.00
2022-09-04T12:31:24.070Z,6818.00
2022-09-04T12:32:24.006Z,7530.00
2022-09-04T12:33:24.049Z,6193.00
2022-09-04T12:34:23.955Z,1251.00
2022-09-04T12:35:25.766Z,6517.00
2022-09-04T12:36:23.940Z,6409.00
2022-09-04T12:37:23.929Z,6353.00
2022-09-04T12:38:23.957Z,6717.00